createdAt,value
2023-03-08T13:36:24.609Z,11.50
2023-03-08T13:38:57.714Z,11.50
2023-03-08T13:41:45.859Z,11.50
2023-03-08T13:44:28.171Z,11.50
2023-03-08T13:47:03.083Z,11.50
2023-03-08T13:49:37.464Z,11.60
2023-03-08T13:54:48.563Z,11.70
2023-03-08T13:57:26.407Z,11.80
2023-03-08T13:59:57.409Z,11.80
2023-03-08T14:02:31.200Z,11.80
2023-03-08T14:04:59.053Z,11.80
2023-03-08T14:07:32.053Z,11.90
2023-03-08T14:09:59.593Z,11.90
2023-03-08T14:12:31.508Z,11.90
2023-03-08T14:15:03.084Z,11.90
2023-03-08T14:17:34.363Z,11.90
2023-03-08T14:22:39.948Z,11.70
2023-03-08T14:25:28.617Z,11.60
2023-03-08T14:30:30.083Z,11.40
2023-03-08T14:33:01.706Z,11.50
2023-03-08T14:35:37.414Z,11.50
2023-03-08T14:38:25.777Z,11.60
2023-03-08T14:40:54.362Z,11.60
2023-03-08T14:43:25.161Z,11.60
2023-03-08T14:45:56.555Z,11.60
2023-03-08T14:48:36.986Z,11.60
2023-03-08T14:51:31.167Z,11.60
2023-03-08T14:54:05.768Z,11.50
2023-03-08T14:56:34.655Z,11.30
2023-03-08T14:59:05.393Z,11.20
2023-03-08T15:01:36.301Z,11.20
2023-03-08T15:04:06.576Z,11.40
2023-03-08T15:06:39.522Z,11.40
2023-03-08T15:09:08.597Z,11.30
2023-03-08T15:11:36.444Z,11.40
2023-03-08T15:14:03.764Z,11.40
2023-03-08T15:16:30.860Z,11.30
2023-03-08T15:18:57.866Z,11.30
2023-03-08T15:21:27.188Z,11.30
2023-03-08T15:23:55.091Z,11.30
2023-03-08T15:26:31.691Z,11.40
2023-03-08T15:29:03.264Z,11.50
2023-03-08T15:31:31.720Z,11.50
2023-03-08T15:33:58.853Z,11.60
2023-03-08T15:36:26.224Z,11.70
2023-03-08T15:38:53.364Z,11.80
2023-03-08T15:41:20.345Z,11.80
2023-03-08T15:43:47.572Z,11.80
2023-03-08T15:46:15.907Z,11.80
2023-03-08T15:48:45.588Z,11.90
2023-03-08T15:51:21.224Z,11.90
2023-03-08T15:53:49.238Z,11.80
2023-03-08T15:56:16.896Z,11.80
2023-03-08T15:58:43.928Z,11.80
2023-03-08T16:01:11.982Z,11.80
2023-03-08T16:03:39.525Z,11.80
2023-03-08T16:06:15.176Z,11.80
2023-03-08T16:08:42.275Z,11.80
2023-03-08T16:11:10.681Z,11.80
2023-03-08T16:13:37.846Z,11.80
2023-03-08T16:16:06.644Z,11.70
2023-03-08T16:18:35.917Z,11.60
2023-03-08T16:21:08.972Z,11.50
2023-03-08T16:23:37.367Z,11.50
2023-03-08T16:26:16.666Z,11.50
2023-03-08T16:28:47.662Z,11.50
2023-03-08T16:31:16.646Z,11.50
2023-03-08T16:33:43.882Z,11.50
2023-03-08T16:36:12.430Z,11.50
2023-03-08T16:38:40.109Z,11.50
2023-03-08T16:41:13.334Z,11.60
2023-03-08T16:43:49.956Z,11.60
2023-03-08T16:46:21.298Z,11.60
2023-03-08T16:48:50.556Z,11.60
2023-03-08T16:51:20.655Z,11.50
2023-03-08T16:53:48.301Z,11.50
2023-03-08T16:56:27.174Z,11.40
2023-03-08T16:58:57.224Z,11.40
2023-03-08T17:01:25.540Z,11.40
2023-03-08T17:03:53.244Z,11.40
2023-03-08T17:06:23.586Z,11.40
2023-03-08T17:08:50.553Z,11.40
2023-03-08T17:11:25.316Z,11.40
2023-03-08T17:13:58.037Z,11.40
2023-03-08T17:16:28.892Z,11.40
2023-03-08T17:18:58.514Z,11.40
2023-03-08T17:21:25.517Z,11.30
2023-03-08T17:23:53.115Z,11.30
2023-03-08T17:26:23.240Z,11.40
2023-03-08T17:28:52.131Z,11.50
2023-03-08T17:31:22.354Z,11.50
2023-03-08T17:33:49.933Z,11.60
2023-03-08T17:36:17.913Z,11.60
2023-03-08T17:38:45.074Z,11.60
2023-03-08T17:41:15.475Z,11.50
2023-03-08T17:43:42.696Z,11.50
2023-03-08T17:46:21.389Z,11.50
2023-03-08T17:48:48.975Z,11.50
2023-03-08T17:51:19.368Z,11.40
2023-03-08T17:53:46.723Z,11.30
2023-03-08T17:56:17.466Z,11.30
2023-03-08T18:01:17.238Z,11.30
2023-03-08T18:03:44.867Z,11.40
2023-03-08T18:08:46.507Z,11.50
2023-03-08T18:11:13.485Z,11.60
2023-03-08T18:13:41.020Z,11.60
2023-03-08T19:45:50.184Z,10.10
2023-03-08T19:48:17.200Z,10.30
2023-03-08T19:50:47.358Z,10.30
2023-03-08T19:53:14.330Z,10.30
2023-03-08T19:55:54.261Z,10.20
2023-03-08T19:58:23.320Z,10.20
2023-03-08T20:00:50.309Z,10.10
2023-03-08T20:03:17.763Z,10.10
2023-03-08T20:05:47.556Z,10.00
2023-03-08T20:08:14.578Z,10.00
2023-03-08T20:10:41.723Z,9.90
2023-03-08T20:13:08.811Z,9.90
2023-03-08T20:15:35.824Z,9.80
2023-03-08T20:18:02.851Z,9.80
2023-03-08T20:20:29.897Z,9.80
2023-03-08T20:22:56.912Z,9.70
2023-03-08T20:25:24.068Z,9.70
2023-03-08T20:27:51.185Z,9.70
2023-03-08T20:30:18.318Z,9.70
2023-03-08T20:32:45.402Z,9.70
2023-03-08T20:35:14.951Z,9.70
2023-03-08T20:37:42.246Z,9.60
2023-03-08T20:40:13.457Z,9.60
2023-03-08T20:42:40.464Z,9.60
2023-03-08T20:45:08.252Z,9.60
2023-03-08T20:47:35.775Z,9.60
2023-03-08T20:50:02.983Z,9.60
2023-03-08T20:52:29.977Z,9.60
2023-03-08T20:54:57.114Z,9.60
2023-03-08T20:57:24.164Z,9.60
2023-03-08T20:59:51.278Z,9.70
2023-03-08T21:02:18.400Z,9.60
2023-03-08T21:04:45.391Z,9.60
2023-03-08T21:07:12.415Z,9.60
2023-03-08T21:09:39.412Z,9.70
2023-03-08T21:12:07.950Z,9.70
2023-03-08T21:14:34.924Z,9.70
2023-03-08T21:17:01.984Z,9.50
2023-03-08T21:19:28.982Z,9.50
2023-03-08T21:21:55.972Z,9.50
2023-03-08T21:24:23.452Z,9.50
2023-03-08T21:26:52.098Z,9.40
2023-03-08T21:29:21.446Z,9.50
2023-03-08T21:31:52.456Z,9.40
2023-03-08T21:34:20.823Z,9.40
2023-03-08T21:36:47.746Z,9.50
2023-03-08T21:39:15.176Z,9.60
2023-03-08T21:41:45.983Z,9.60
2023-03-08T21:44:17.018Z,9.60
2023-03-08T21:46:44.925Z,9.80
2023-03-08T21:49:18.583Z,9.70
2023-03-08T21:51:45.729Z,9.70
2023-03-08T21:54:12.888Z,9.50
2023-03-08T21:56:40.016Z,9.50
2023-03-08T21:59:07.264Z,9.50
2023-03-08T22:01:34.814Z,9.60
2023-03-08T22:08:58.375Z,9.40
2023-03-08T22:11:26.391Z,9.50
2023-03-08T22:13:57.697Z,9.60
2023-03-08T22:16:26.282Z,9.60
2023-03-08T22:18:56.683Z,9.70
2023-03-08T22:21:24.285Z,9.60
2023-03-08T22:23:58.315Z,9.60
2023-03-08T22:26:27.506Z,9.50
2023-03-08T22:28:55.203Z,9.50
2023-03-08T22:31:25.085Z,9.40
2023-03-08T22:33:52.507Z,9.60
2023-03-08T22:36:21.807Z,9.60
2023-03-08T22:38:49.113Z,9.60
2023-03-08T22:41:26.635Z,9.70
2023-03-08T22:43:54.005Z,9.70
2023-03-08T22:46:27.046Z,9.70
2023-03-08T22:48:57.754Z,9.70
2023-03-08T22:51:28.257Z,9.70
2023-03-08T22:53:56.047Z,9.70
2023-03-08T22:56:30.212Z,9.80
2023-03-08T22:58:58.484Z,9.80
2023-03-08T23:01:27.373Z,9.80
2023-03-08T23:03:57.498Z,9.80
2023-03-08T23:06:28.227Z,9.90
2023-03-08T23:08:56.957Z,9.90
2023-03-08T23:11:24.489Z,9.90
2023-03-08T23:13:52.595Z,10.00
2023-03-08T23:16:20.734Z,9.90
2023-03-08T23:18:53.074Z,9.90
2023-03-08T23:21:23.738Z,9.80
2023-03-08T23:23:50.785Z,9.90
2023-03-08T23:26:24.569Z,9.90
2023-03-08T23:28:51.637Z,10.00
2023-03-08T23:31:22.376Z,9.90
2023-03-08T23:33:51.220Z,9.80
2023-03-08T23:36:21.405Z,9.70
2023-03-08T23:38:49.198Z,9.80
2023-03-08T23:41:17.414Z,9.80
2023-03-08T23:43:44.973Z,9.80
2023-03-08T23:46:19.685Z,9.80
2023-03-08T23:48:48.514Z,9.80
2023-03-08T23:51:20.713Z,9.90
2023-03-08T23:53:55.111Z,9.80
2023-03-08T23:56:27.208Z,9.90
2023-03-08T23:58:56.143Z,9.90
